sensor_id;sensor_type;location;lat;lon;timestamp;P1;durP1;ratioP1;P2;durP2;ratioP2
52210;SDS011;38179;52.756;6.906;2023-07-29T00:02:09;28.50;;;26.00;;
52210;SDS011;38179;52.756;6.906;2023-07-29T00:04:35;28.88;;;26.48;;
52210;SDS011;38179;52.756;6.906;2023-07-29T00:07:01;28.45;;;26.10;;
52210;SDS011;38179;52.756;6.906;2023-07-29T00:09:27;29.80;;;27.23;;
52210;SDS011;38179;52.756;6.906;2023-07-29T00:11:53;30.35;;;27.55;;
52210;SDS011;38179;52.756;6.906;2023-07-29T00:14:19;29.13;;;26.42;;
52210;SDS011;38179;52.756;6.906;2023-07-29T00:16:45;29.90;;;27.10;;
52210;SDS011;38179;52.756;6.906;2023-07-29T00:19:11;30.00;;;27.23;;
52210;SDS011;38179;52.756;6.906;2023-07-29T00:21:37;31.55;;;28.33;;
52210;SDS011;38179;52.756;6.906;2023-07-29T00:24:03;31.30;;;28.50;;
52210;SDS011;38179;52.756;6.906;2023-07-29T00:26:29;30.10;;;27.25;;
52210;SDS011;38179;52.756;6.906;2023-07-29T00:28:55;30.15;;;27.48;;
52210;SDS011;38179;52.756;6.906;2023-07-29T00:31:21;30.73;;;27.83;;
52210;SDS011;38179;52.756;6.906;2023-07-29T00:33:47;31.83;;;28.77;;
52210;SDS011;38179;52.756;6.906;2023-07-29T00:36:13;30.85;;;28.23;;
52210;SDS011;38179;52.756;6.906;2023-07-29T00:38:39;30.90;;;28.27;;
52210;SDS011;38179;52.756;6.906;2023-07-29T00:41:05;30.83;;;28.15;;
52210;SDS011;38179;52.756;6.906;2023-07-29T00:43:32;30.77;;;27.88;;
52210;SDS011;38179;52.756;6.906;2023-07-29T00:45:58;31.38;;;28.48;;
52210;SDS011;38179;52.756;6.906;2023-07-29T00:48:25;30.17;;;27.58;;
52210;SDS011;38179;52.756;6.906;2023-07-29T00:50:51;30.48;;;27.80;;
52210;SDS011;38179;52.756;6.906;2023-07-29T00:53:18;31.65;;;28.73;;
52210;SDS011;38179;52.756;6.906;2023-07-29T00:55:44;31.40;;;28.35;;
52210;SDS011;38179;52.756;6.906;2023-07-29T00:58:10;30.92;;;28.08;;
52210;SDS011;38179;52.756;6.906;2023-07-29T01:00:37;30.77;;;27.92;;
52210;SDS011;38179;52.756;6.906;2023-07-29T01:03:03;30.98;;;28.17;;
52210;SDS011;38179;52.756;6.906;2023-07-29T01:05:32;30.98;;;28.25;;
52210;SDS011;38179;52.756;6.906;2023-07-29T01:08:18;32.03;;;28.92;;
52210;SDS011;38179;52.756;6.906;2023-07-29T01:14:01;29.88;;;27.08;;
52210;SDS011;38179;52.756;6.906;2023-07-29T01:17:09;28.77;;;26.10;;
52210;SDS011;38179;52.756;6.906;2023-07-29T01:22:04;29.67;;;27.08;;
52210;SDS011;38179;52.756;6.906;2023-07-29T01:24:31;30.08;;;27.48;;
52210;SDS011;38179;52.756;6.906;2023-07-29T01:26:58;30.08;;;27.42;;
52210;SDS011;38179;52.756;6.906;2023-07-29T01:29:24;30.05;;;27.38;;
52210;SDS011;38179;52.756;6.906;2023-07-29T01:31:50;29.20;;;26.65;;
52210;SDS011;38179;52.756;6.906;2023-07-29T01:34:22;29.73;;;26.77;;
52210;SDS011;38179;52.756;6.906;2023-07-29T01:36:54;28.42;;;25.92;;
52210;SDS011;38179;52.756;6.906;2023-07-29T01:39:24;29.48;;;26.98;;
52210;SDS011;38179;52.756;6.906;2023-07-29T01:41:53;29.30;;;26.70;;
52210;SDS011;38179;52.756;6.906;2023-07-29T01:44:19;28.30;;;25.90;;
52210;SDS011;38179;52.756;6.906;2023-07-29T01:46:48;29.13;;;26.45;;
52210;SDS011;38179;52.756;6.906;2023-07-29T01:49:15;28.33;;;25.83;;
52210;SDS011;38179;52.756;6.906;2023-07-29T01:51:41;28.10;;;25.63;;
52210;SDS011;38179;52.756;6.906;2023-07-29T01:54:07;28.17;;;25.85;;
52210;SDS011;38179;52.756;6.906;2023-07-29T01:56:32;28.35;;;25.92;;
52210;SDS011;38179;52.756;6.906;2023-07-29T01:58:58;28.15;;;25.60;;
52210;SDS011;38179;52.756;6.906;2023-07-29T02:01:24;28.13;;;25.52;;
52210;SDS011;38179;52.756;6.906;2023-07-29T02:03:50;27.75;;;25.35;;
52210;SDS011;38179;52.756;6.906;2023-07-29T02:06:20;27.55;;;25.25;;
52210;SDS011;38179;52.756;6.906;2023-07-29T02:08:46;27.70;;;25.40;;
52210;SDS011;38179;52.756;6.906;2023-07-29T02:11:13;26.90;;;24.50;;
52210;SDS011;38179;52.756;6.906;2023-07-29T02:13:39;27.48;;;25.00;;
52210;SDS011;38179;52.756;6.906;2023-07-29T02:16:05;26.75;;;24.40;;
52210;SDS011;38179;52.756;6.906;2023-07-29T02:18:31;26.30;;;24.05;;
52210;SDS011;38179;52.756;6.906;2023-07-29T02:20:57;27.45;;;25.05;;
52210;SDS011;38179;52.756;6.906;2023-07-29T02:23:23;27.55;;;25.15;;
52210;SDS011;38179;52.756;6.906;2023-07-29T02:25:49;26.67;;;24.42;;
52210;SDS011;38179;52.756;6.906;2023-07-29T02:28:15;26.33;;;24.02;;
52210;SDS011;38179;52.756;6.906;2023-07-29T02:30:41;26.65;;;24.35;;
52210;SDS011;38179;52.756;6.906;2023-07-29T02:33:10;25.90;;;23.75;;
52210;SDS011;38179;52.756;6.906;2023-07-29T02:35:35;25.70;;;23.60;;
52210;SDS011;38179;52.756;6.906;2023-07-29T02:38:01;25.77;;;23.58;;
52210;SDS011;38179;52.756;6.906;2023-07-29T02:40:27;26.23;;;23.88;;
52210;SDS011;38179;52.756;6.906;2023-07-29T02:42:54;24.92;;;22.75;;
52210;SDS011;38179;52.756;6.906;2023-07-29T02:45:20;25.88;;;23.70;;
52210;SDS011;38179;52.756;6.906;2023-07-29T02:47:46;25.42;;;23.33;;
52210;SDS011;38179;52.756;6.906;2023-07-29T02:50:12;24.45;;;22.33;;
52210;SDS011;38179;52.756;6.906;2023-07-29T02:52:38;24.48;;;22.38;;
52210;SDS011;38179;52.756;6.906;2023-07-29T02:55:04;24.40;;;22.42;;
52210;SDS011;38179;52.756;6.906;2023-07-29T02:57:30;23.63;;;21.73;;
52210;SDS011;38179;52.756;6.906;2023-07-29T02:59:56;23.40;;;21.50;;
52210;SDS011;38179;52.756;6.906;2023-07-29T03:02:22;23.75;;;21.70;;
52210;SDS011;38179;52.756;6.906;2023-07-29T03:04:48;23.70;;;21.67;;
52210;SDS011;38179;52.756;6.906;2023-07-29T03:07:14;23.10;;;21.13;;
52210;SDS011;38179;52.756;6.906;2023-07-29T03:09:40;23.42;;;21.52;;
52210;SDS011;38179;52.756;6.906;2023-07-29T03:12:07;22.15;;;20.15;;
52210;SDS011;38179;52.756;6.906;2023-07-29T03:14:33;21.85;;;20.02;;
52210;SDS011;38179;52.756;6.906;2023-07-29T03:17:02;22.60;;;20.65;;
52210;SDS011;38179;52.756;6.906;2023-07-29T03:19:29;22.20;;;20.35;;
52210;SDS011;38179;52.756;6.906;2023-07-29T03:21:55;21.63;;;19.83;;
52210;SDS011;38179;52.756;6.906;2023-07-29T03:24:21;22.33;;;20.52;;
52210;SDS011;38179;52.756;6.906;2023-07-29T03:26:47;22.27;;;20.27;;
52210;SDS011;38179;52.756;6.906;2023-07-29T03:29:13;21.85;;;20.15;;
52210;SDS011;38179;52.756;6.906;2023-07-29T03:31:39;21.35;;;19.63;;
52210;SDS011;38179;52.756;6.906;2023-07-29T03:34:05;22.00;;;20.20;;
52210;SDS011;38179;52.756;6.906;2023-07-29T03:36:31;21.65;;;19.95;;
52210;SDS011;38179;52.756;6.906;2023-07-29T03:38:57;21.88;;;20.08;;
52210;SDS011;38179;52.756;6.906;2023-07-29T03:41:23;21.58;;;19.88;;
52210;SDS011;38179;52.756;6.906;2023-07-29T03:43:49;21.73;;;19.80;;
52210;SDS011;38179;52.756;6.906;2023-07-29T03:46:15;21.95;;;19.95;;
52210;SDS011;38179;52.756;6.906;2023-07-29T03:48:44;21.33;;;19.63;;
52210;SDS011;38179;52.756;6.906;2023-07-29T03:51:10;21.75;;;20.05;;
52210;SDS011;38179;52.756;6.906;2023-07-29T03:53:36;20.90;;;19.30;;
52210;SDS011;38179;52.756;6.906;2023-07-29T03:56:02;21.77;;;20.00;;
52210;SDS011;38179;52.756;6.906;2023-07-29T03:58:28;20.15;;;18.52;;
52210;SDS011;38179;52.756;6.906;2023-07-29T04:00:54;21.25;;;19.52;;
52210;SDS011;38179;52.756;6.906;2023-07-29T04:03:20;19.83;;;18.33;;
52210;SDS011;38179;52.756;6.906;2023-07-29T04:05:46;20.33;;;18.73;;
52210;SDS011;38179;52.756;6.906;2023-07-29T04:08:12;20.80;;;19.00;;
52210;SDS011;38179;52.756;6.906;2023-07-29T04:10:38;20.88;;;18.95;;
52210;SDS011;38179;52.756;6.906;2023-07-29T04:13:04;20.30;;;18.70;;
52210;SDS011;38179;52.756;6.906;2023-07-29T04:15:30;20.92;;;19.13;;
52210;SDS011;38179;52.756;6.906;2023-07-29T04:17:56;20.02;;;18.38;;
52210;SDS011;38179;52.756;6.906;2023-07-29T04:20:22;20.17;;;18.67;;
52210;SDS011;38179;52.756;6.906;2023-07-29T04:22:48;20.55;;;18.92;;
52210;SDS011;38179;52.756;6.906;2023-07-29T04:25:14;20.08;;;18.58;;
52210;SDS011;38179;52.756;6.906;2023-07-29T04:27:40;20.40;;;18.85;;
52210;SDS011;38179;52.756;6.906;2023-07-29T04:30:06;21.33;;;19.25;;
52210;SDS011;38179;52.756;6.906;2023-07-29T04:32:32;19.85;;;18.25;;
52210;SDS011;38179;52.756;6.906;2023-07-29T04:34:59;20.52;;;18.92;;
52210;SDS011;38179;52.756;6.906;2023-07-29T04:37:25;19.70;;;18.20;;
52210;SDS011;38179;52.756;6.906;2023-07-29T04:39:52;19.38;;;17.88;;
52210;SDS011;38179;52.756;6.906;2023-07-29T04:42:18;20.25;;;18.42;;
52210;SDS011;38179;52.756;6.906;2023-07-29T04:44:44;19.27;;;17.77;;
52210;SDS011;38179;52.756;6.906;2023-07-29T04:47:12;19.27;;;17.77;;
52210;SDS011;38179;52.756;6.906;2023-07-29T04:49:38;19.02;;;17.52;;
52210;SDS011;38179;52.756;6.906;2023-07-29T04:52:04;19.77;;;18.27;;
52210;SDS011;38179;52.756;6.906;2023-07-29T04:54:31;19.17;;;17.67;;
52210;SDS011;38179;52.756;6.906;2023-07-29T04:56:56;19.45;;;17.95;;
52210;SDS011;38179;52.756;6.906;2023-07-29T04:59:22;19.02;;;17.60;;
52210;SDS011;38179;52.756;6.906;2023-07-29T05:01:48;18.45;;;17.08;;
52210;SDS011;38179;52.756;6.906;2023-07-29T05:04:14;18.80;;;17.40;;
52210;SDS011;38179;52.756;6.906;2023-07-29T05:06:40;19.48;;;17.88;;
52210;SDS011;38179;52.756;6.906;2023-07-29T05:09:13;18.92;;;17.52;;
52210;SDS011;38179;52.756;6.906;2023-07-29T05:11:41;19.05;;;17.55;;
52210;SDS011;38179;52.756;6.906;2023-07-29T05:14:07;18.48;;;17.08;;
52210;SDS011;38179;52.756;6.906;2023-07-29T05:16:34;19.33;;;17.63;;
52210;SDS011;38179;52.756;6.906;2023-07-29T05:19:00;19.48;;;17.83;;
52210;SDS011;38179;52.756;6.906;2023-07-29T05:21:26;18.50;;;17.00;;
52210;SDS011;38179;52.756;6.906;2023-07-29T05:23:52;18.88;;;17.42;;
52210;SDS011;38179;52.756;6.906;2023-07-29T05:26:18;20.17;;;18.55;;
52210;SDS011;38179;52.756;6.906;2023-07-29T05:28:44;19.70;;;18.10;;
52210;SDS011;38179;52.756;6.906;2023-07-29T05:31:10;19.30;;;17.65;;
52210;SDS011;38179;52.756;6.906;2023-07-29T05:33:36;20.52;;;18.92;;
52210;SDS011;38179;52.756;6.906;2023-07-29T05:36:02;20.80;;;19.10;;
52210;SDS011;38179;52.756;6.906;2023-07-29T05:38:28;20.42;;;18.73;;
52210;SDS011;38179;52.756;6.906;2023-07-29T05:40:54;20.10;;;18.40;;
52210;SDS011;38179;52.756;6.906;2023-07-29T05:43:19;20.33;;;18.65;;
52210;SDS011;38179;52.756;6.906;2023-07-29T05:45:45;20.98;;;19.20;;
52210;SDS011;38179;52.756;6.906;2023-07-29T05:48:11;20.77;;;18.98;;
52210;SDS011;38179;52.756;6.906;2023-07-29T05:50:37;20.63;;;18.83;;
52210;SDS011;38179;52.756;6.906;2023-07-29T05:53:03;20.48;;;18.85;;
52210;SDS011;38179;52.756;6.906;2023-07-29T05:55:29;21.70;;;19.52;;
52210;SDS011;38179;52.756;6.906;2023-07-29T05:57:55;21.17;;;19.38;;
52210;SDS011;38179;52.756;6.906;2023-07-29T06:00:21;21.88;;;20.05;;
52210;SDS011;38179;52.756;6.906;2023-07-29T06:02:47;21.38;;;19.58;;
52210;SDS011;38179;52.756;6.906;2023-07-29T06:05:13;21.98;;;19.85;;
52210;SDS011;38179;52.756;6.906;2023-07-29T06:07:39;23.83;;;20.55;;
52210;SDS011;38179;52.756;6.906;2023-07-29T06:10:09;23.00;;;21.00;;
52210;SDS011;38179;52.756;6.906;2023-07-29T06:12:38;22.05;;;20.13;;
52210;SDS011;38179;52.756;6.906;2023-07-29T06:15:04;22.63;;;20.70;;
52210;SDS011;38179;52.756;6.906;2023-07-29T06:17:31;23.00;;;21.00;;
52210;SDS011;38179;52.756;6.906;2023-07-29T06:19:56;21.73;;;19.80;;
52210;SDS011;38179;52.756;6.906;2023-07-29T06:22:22;22.90;;;20.67;;
52210;SDS011;38179;52.756;6.906;2023-07-29T06:24:48;23.83;;;21.33;;
52210;SDS011;38179;52.756;6.906;2023-07-29T06:27:14;21.60;;;19.83;;
52210;SDS011;38179;52.756;6.906;2023-07-29T06:32:09;22.75;;;20.65;;
52210;SDS011;38179;52.756;6.906;2023-07-29T06:34:35;22.75;;;20.70;;
52210;SDS011;38179;52.756;6.906;2023-07-29T06:37:01;23.92;;;20.92;;
52210;SDS011;38179;52.756;6.906;2023-07-29T06:39:27;22.95;;;20.95;;
52210;SDS011;38179;52.756;6.906;2023-07-29T06:41:53;23.65;;;21.55;;
52210;SDS011;38179;52.756;6.906;2023-07-29T06:44:19;24.27;;;22.00;;
52210;SDS011;38179;52.756;6.906;2023-07-29T06:46:45;22.67;;;20.73;;
52210;SDS011;38179;52.756;6.906;2023-07-29T06:49:11;23.13;;;21.05;;
52210;SDS011;38179;52.756;6.906;2023-07-29T06:51:37;22.95;;;20.73;;
52210;SDS011;38179;52.756;6.906;2023-07-29T06:54:03;23.65;;;21.58;;
52210;SDS011;38179;52.756;6.906;2023-07-29T06:56:29;22.95;;;20.98;;
52210;SDS011;38179;52.756;6.906;2023-07-29T06:58:55;23.90;;;21.70;;
52210;SDS011;38179;52.756;6.906;2023-07-29T07:01:22;23.05;;;20.98;;
52210;SDS011;38179;52.756;6.906;2023-07-29T07:03:48;22.08;;;20.20;;
52210;SDS011;38179;52.756;6.906;2023-07-29T07:06:14;22.77;;;20.52;;
52210;SDS011;38179;52.756;6.906;2023-07-29T07:08:40;21.73;;;19.83;;
52210;SDS011;38179;52.756;6.906;2023-07-29T07:11:06;22.90;;;20.90;;
52210;SDS011;38179;52.756;6.906;2023-07-29T07:13:33;23.38;;;21.25;;
52210;SDS011;38179;52.756;6.906;2023-07-29T07:15:59;23.17;;;21.08;;
52210;SDS011;38179;52.756;6.906;2023-07-29T07:18:25;22.58;;;20.52;;
52210;SDS011;38179;52.756;6.906;2023-07-29T07:20:50;22.77;;;20.77;;
52210;SDS011;38179;52.756;6.906;2023-07-29T07:23:17;23.40;;;21.27;;
52210;SDS011;38179;52.756;6.906;2023-07-29T07:25:43;23.40;;;21.13;;
52210;SDS011;38179;52.756;6.906;2023-07-29T07:28:10;23.25;;;21.25;;
52210;SDS011;38179;52.756;6.906;2023-07-29T07:30:39;24.42;;;22.33;;
52210;SDS011;38179;52.756;6.906;2023-07-29T07:33:06;23.73;;;21.70;;
52210;SDS011;38179;52.756;6.906;2023-07-29T07:35:35;23.38;;;21.48;;
52210;SDS011;38179;52.756;6.906;2023-07-29T07:38:01;23.52;;;21.60;;
52210;SDS011;38179;52.756;6.906;2023-07-29T07:40:30;24.00;;;22.00;;
52210;SDS011;38179;52.756;6.906;2023-07-29T07:42:56;24.35;;;22.02;;
52210;SDS011;38179;52.756;6.906;2023-07-29T07:45:22;23.50;;;21.58;;
52210;SDS011;38179;52.756;6.906;2023-07-29T07:47:48;23.30;;;21.20;;
52210;SDS011;38179;52.756;6.906;2023-07-29T07:50:14;22.55;;;20.55;;
52210;SDS011;38179;52.756;6.906;2023-07-29T07:52:41;22.80;;;20.52;;
52210;SDS011;38179;52.756;6.906;2023-07-29T07:55:07;21.85;;;19.95;;
52210;SDS011;38179;52.756;6.906;2023-07-29T07:57:33;22.73;;;20.67;;
52210;SDS011;38179;52.756;6.906;2023-07-29T07:59:59;21.35;;;19.52;;
52210;SDS011;38179;52.756;6.906;2023-07-29T08:02:25;22.40;;;20.38;;
52210;SDS011;38179;52.756;6.906;2023-07-29T08:04:51;22.42;;;20.38;;
52210;SDS011;38179;52.756;6.906;2023-07-29T08:07:17;22.30;;;20.40;;
52210;SDS011;38179;52.756;6.906;2023-07-29T08:09:43;21.67;;;20.00;;
52210;SDS011;38179;52.756;6.906;2023-07-29T08:12:09;21.45;;;19.75;;
52210;SDS011;38179;52.756;6.906;2023-07-29T08:14:35;22.05;;;20.05;;
52210;SDS011;38179;52.756;6.906;2023-07-29T08:17:01;21.58;;;19.77;;
52210;SDS011;38179;52.756;6.906;2023-07-29T08:19:28;21.38;;;19.52;;
52210;SDS011;38179;52.756;6.906;2023-07-29T08:21:54;21.55;;;19.67;;
52210;SDS011;38179;52.756;6.906;2023-07-29T08:24:19;21.60;;;19.60;;
52210;SDS011;38179;52.756;6.906;2023-07-29T08:26:45;22.00;;;20.27;;
52210;SDS011;38179;52.756;6.906;2023-07-29T08:29:11;20.38;;;18.63;;
52210;SDS011;38179;52.756;6.906;2023-07-29T08:31:37;20.38;;;18.73;;
52210;SDS011;38179;52.756;6.906;2023-07-29T08:34:04;21.48;;;19.48;;
52210;SDS011;38179;52.756;6.906;2023-07-29T08:36:29;19.98;;;18.38;;
52210;SDS011;38179;52.756;6.906;2023-07-29T08:38:55;20.13;;;18.58;;
52210;SDS011;38179;52.756;6.906;2023-07-29T08:41:25;20.67;;;18.88;;
52210;SDS011;38179;52.756;6.906;2023-07-29T08:44:10;21.55;;;19.73;;
52210;SDS011;38179;52.756;6.906;2023-07-29T08:46:40;20.80;;;18.95;;
52210;SDS011;38179;52.756;6.906;2023-07-29T08:49:07;19.98;;;18.48;;
52210;SDS011;38179;52.756;6.906;2023-07-29T08:51:33;20.10;;;18.25;;
52210;SDS011;38179;52.756;6.906;2023-07-29T08:54:00;20.95;;;18.95;;
52210;SDS011;38179;52.756;6.906;2023-07-29T08:56:27;19.17;;;17.58;;
52210;SDS011;38179;52.756;6.906;2023-07-29T08:58:55;19.38;;;17.88;;
52210;SDS011;38179;52.756;6.906;2023-07-29T09:01:21;20.70;;;18.92;;
52210;SDS011;38179;52.756;6.906;2023-07-29T09:03:48;20.52;;;18.63;;
52210;SDS011;38179;52.756;6.906;2023-07-29T09:06:13;19.73;;;18.00;;
52210;SDS011;38179;52.756;6.906;2023-07-29T09:08:41;19.75;;;18.15;;
52210;SDS011;38179;52.756;6.906;2023-07-29T09:11:08;19.83;;;18.33;;
52210;SDS011;38179;52.756;6.906;2023-07-29T09:13:34;19.50;;;18.00;;
52210;SDS011;38179;52.756;6.906;2023-07-29T09:16:00;20.17;;;18.40;;
52210;SDS011;38179;52.756;6.906;2023-07-29T09:18:27;20.10;;;18.45;;
52210;SDS011;38179;52.756;6.906;2023-07-29T09:20:53;20.33;;;18.55;;
52210;SDS011;38179;52.756;6.906;2023-07-29T09:23:23;20.30;;;18.58;;
52210;SDS011;38179;52.756;6.906;2023-07-29T09:25:50;19.50;;;17.90;;
52210;SDS011;38179;52.756;6.906;2023-07-29T09:28:16;20.08;;;18.45;;
52210;SDS011;38179;52.756;6.906;2023-07-29T09:30:43;20.23;;;18.38;;
52210;SDS011;38179;52.756;6.906;2023-07-29T09:33:10;20.13;;;18.57;;
52210;SDS011;38179;52.756;6.906;2023-07-29T09:35:37;18.90;;;17.40;;
52210;SDS011;38179;52.756;6.906;2023-07-29T09:38:06;19.13;;;17.73;;
52210;SDS011;38179;52.756;6.906;2023-07-29T09:40:35;20.30;;;18.63;;
52210;SDS011;38179;52.756;6.906;2023-07-29T09:43:03;19.80;;;18.08;;
52210;SDS011;38179;52.756;6.906;2023-07-29T09:45:30;19.75;;;17.75;;
52210;SDS011;38179;52.756;6.906;2023-07-29T09:50:25;19.42;;;17.80;;
52210;SDS011;38179;52.756;6.906;2023-07-29T09:52:51;19.52;;;17.92;;
52210;SDS011;38179;52.756;6.906;2023-07-29T09:55:19;19.75;;;18.08;;
52210;SDS011;38179;52.756;6.906;2023-07-29T09:57:58;19.15;;;17.65;;
52210;SDS011;38179;52.756;6.906;2023-07-29T10:00:30;19.20;;;17.70;;
52210;SDS011;38179;52.756;6.906;2023-07-29T10:02:57;19.30;;;17.70;;
52210;SDS011;38179;52.756;6.906;2023-07-29T10:05:27;18.95;;;17.45;;
52210;SDS011;38179;52.756;6.906;2023-07-29T10:07:54;20.13;;;18.58;;
52210;SDS011;38179;52.756;6.906;2023-07-29T10:10:21;19.30;;;17.63;;
52210;SDS011;38179;52.756;6.906;2023-07-29T10:12:51;19.58;;;18.08;;
52210;SDS011;38179;52.756;6.906;2023-07-29T10:15:19;20.30;;;18.80;;
52210;SDS011;38179;52.756;6.906;2023-07-29T10:17:46;19.48;;;18.00;;
52210;SDS011;38179;52.756;6.906;2023-07-29T10:20:13;19.65;;;18.15;;
52210;SDS011;38179;52.756;6.906;2023-07-29T10:22:40;20.10;;;18.60;;
52210;SDS011;38179;52.756;6.906;2023-07-29T10:25:07;19.55;;;18.05;;
52210;SDS011;38179;52.756;6.906;2023-07-29T10:27:42;19.30;;;17.80;;
52210;SDS011;38179;52.756;6.906;2023-07-29T10:30:17;19.73;;;18.00;;
52210;SDS011;38179;52.756;6.906;2023-07-29T10:32:44;19.48;;;17.95;;
52210;SDS011;38179;52.756;6.906;2023-07-29T10:35:12;20.10;;;18.50;;
52210;SDS011;38179;52.756;6.906;2023-07-29T10:37:41;19.98;;;18.27;;
52210;SDS011;38179;52.756;6.906;2023-07-29T10:40:09;19.75;;;18.25;;
52210;SDS011;38179;52.756;6.906;2023-07-29T10:42:36;19.52;;;18.13;;
52210;SDS011;38179;52.756;6.906;2023-07-29T10:45:19;19.73;;;18.23;;
52210;SDS011;38179;52.756;6.906;2023-07-29T10:47:46;20.02;;;18.52;;
52210;SDS011;38179;52.756;6.906;2023-07-29T10:50:20;20.08;;;18.35;;
52210;SDS011;38179;52.756;6.906;2023-07-29T10:52:52;20.70;;;19.20;;
52210;SDS011;38179;52.756;6.906;2023-07-29T10:55:34;21.08;;;19.27;;
52210;SDS011;38179;52.756;6.906;2023-07-29T10:58:04;21.25;;;19.63;;
52210;SDS011;38179;52.756;6.906;2023-07-29T11:00:45;21.27;;;19.67;;
52210;SDS011;38179;52.756;6.906;2023-07-29T11:03:12;21.40;;;19.65;;
52210;SDS011;38179;52.756;6.906;2023-07-29T11:05:48;21.23;;;19.63;;
52210;SDS011;38179;52.756;6.906;2023-07-29T11:08:19;20.30;;;18.80;;
52210;SDS011;38179;52.756;6.906;2023-07-29T11:10:58;21.17;;;19.60;;
52210;SDS011;38179;52.756;6.906;2023-07-29T11:13:26;21.60;;;19.85;;
52210;SDS011;38179;52.756;6.906;2023-07-29T11:15:53;21.88;;;20.10;;
52210;SDS011;38179;52.756;6.906;2023-07-29T11:18:20;21.35;;;19.65;;
52210;SDS011;38179;52.756;6.906;2023-07-29T11:20:46;21.13;;;19.60;;
52210;SDS011;38179;52.756;6.906;2023-07-29T11:23:13;21.60;;;19.90;;
52210;SDS011;38179;52.756;6.906;2023-07-29T11:25:39;21.02;;;19.42;;
52210;SDS011;38179;52.756;6.906;2023-07-29T11:28:05;21.65;;;20.05;;
52210;SDS011;38179;52.756;6.906;2023-07-29T11:30:31;20.92;;;19.33;;
52210;SDS011;38179;52.756;6.906;2023-07-29T11:32:58;21.88;;;20.10;;
52210;SDS011;38179;52.756;6.906;2023-07-29T11:35:25;22.08;;;20.27;;
52210;SDS011;38179;52.756;6.906;2023-07-29T11:37:52;22.75;;;20.98;;
52210;SDS011;38179;52.756;6.906;2023-07-29T11:40:20;22.15;;;20.35;;
52210;SDS011;38179;52.756;6.906;2023-07-29T11:42:47;22.55;;;20.90;;
52210;SDS011;38179;52.756;6.906;2023-07-29T11:45:15;22.15;;;20.40;;
52210;SDS011;38179;52.756;6.906;2023-07-29T11:47:42;21.90;;;20.23;;
52210;SDS011;38179;52.756;6.906;2023-07-29T11:50:08;21.60;;;19.83;;
52210;SDS011;38179;52.756;6.906;2023-07-29T11:52:36;22.15;;;20.48;;
52210;SDS011;38179;52.756;6.906;2023-07-29T11:55:03;21.85;;;20.05;;
52210;SDS011;38179;52.756;6.906;2023-07-29T11:57:30;21.65;;;20.05;;
52210;SDS011;38179;52.756;6.906;2023-07-29T12:00:01;21.40;;;19.90;;
52210;SDS011;38179;52.756;6.906;2023-07-29T12:02:29;21.45;;;19.77;;
52210;SDS011;38179;52.756;6.906;2023-07-29T12:04:56;21.23;;;19.60;;
52210;SDS011;38179;52.756;6.906;2023-07-29T12:07:23;21.83;;;20.13;;
52210;SDS011;38179;52.756;6.906;2023-07-29T12:09:49;22.48;;;20.75;;
52210;SDS011;38179;52.756;6.906;2023-07-29T12:12:15;22.55;;;20.55;;
52210;SDS011;38179;52.756;6.906;2023-07-29T12:14:45;22.17;;;20.58;;
52210;SDS011;38179;52.756;6.906;2023-07-29T12:17:14;21.05;;;19.35;;
52210;SDS011;38179;52.756;6.906;2023-07-29T12:19:40;20.83;;;19.13;;
52210;SDS011;38179;52.756;6.906;2023-07-29T12:22:08;20.38;;;18.77;;
52210;SDS011;38179;52.756;6.906;2023-07-29T12:24:36;20.20;;;18.47;;
52210;SDS011;38179;52.756;6.906;2023-07-29T12:27:03;20.45;;;18.90;;
52210;SDS011;38179;52.756;6.906;2023-07-29T12:29:30;20.00;;;18.40;;
52210;SDS011;38179;52.756;6.906;2023-07-29T12:31:57;20.38;;;18.67;;
52210;SDS011;38179;52.756;6.906;2023-07-29T12:34:25;20.45;;;18.67;;
52210;SDS011;38179;52.756;6.906;2023-07-29T12:36:53;20.20;;;18.55;;
52210;SDS011;38179;52.756;6.906;2023-07-29T12:41:49;19.83;;;18.33;;
52210;SDS011;38179;52.756;6.906;2023-07-29T12:44:16;20.42;;;18.83;;
52210;SDS011;38179;52.756;6.906;2023-07-29T12:46:43;20.25;;;18.63;;
52210;SDS011;38179;52.756;6.906;2023-07-29T12:49:09;20.27;;;18.70;;
52210;SDS011;38179;52.756;6.906;2023-07-29T12:51:35;20.02;;;18.50;;
52210;SDS011;38179;52.756;6.906;2023-07-29T12:54:02;20.10;;;18.60;;
52210;SDS011;38179;52.756;6.906;2023-07-29T12:56:30;20.13;;;18.63;;
52210;SDS011;38179;52.756;6.906;2023-07-29T12:58:56;20.13;;;18.42;;
52210;SDS011;38179;52.756;6.906;2023-07-29T13:01:23;20.27;;;18.80;;
52210;SDS011;38179;52.756;6.906;2023-07-29T13:03:50;20.30;;;18.77;;
52210;SDS011;38179;52.756;6.906;2023-07-29T13:06:19;20.02;;;18.63;;
52210;SDS011;38179;52.756;6.906;2023-07-29T13:08:45;20.55;;;18.95;;
52210;SDS011;38179;52.756;6.906;2023-07-29T13:11:12;20.35;;;18.85;;
52210;SDS011;38179;52.756;6.906;2023-07-29T13:13:38;20.75;;;19.02;;
52210;SDS011;38179;52.756;6.906;2023-07-29T13:16:04;20.30;;;18.70;;
52210;SDS011;38179;52.756;6.906;2023-07-29T13:18:31;20.98;;;19.38;;
52210;SDS011;38179;52.756;6.906;2023-07-29T13:20:57;20.80;;;19.30;;
52210;SDS011;38179;52.756;6.906;2023-07-29T13:23:23;20.85;;;19.10;;
52210;SDS011;38179;52.756;6.906;2023-07-29T13:25:49;21.00;;;19.08;;
52210;SDS011;38179;52.756;6.906;2023-07-29T13:28:17;20.95;;;19.35;;
52210;SDS011;38179;52.756;6.906;2023-07-29T13:30:44;20.50;;;19.00;;
52210;SDS011;38179;52.756;6.906;2023-07-29T13:33:10;20.52;;;19.02;;
52210;SDS011;38179;52.756;6.906;2023-07-29T13:35:36;19.98;;;18.55;;
52210;SDS011;38179;52.756;6.906;2023-07-29T13:38:02;20.05;;;18.63;;
52210;SDS011;38179;52.756;6.906;2023-07-29T13:40:28;21.83;;;20.13;;
52210;SDS011;38179;52.756;6.906;2023-07-29T13:42:54;20.75;;;19.15;;
52210;SDS011;38179;52.756;6.906;2023-07-29T13:45:21;21.27;;;19.42;;
52210;SDS011;38179;52.756;6.906;2023-07-29T13:47:48;20.95;;;19.30;;
52210;SDS011;38179;52.756;6.906;2023-07-29T13:50:17;21.50;;;19.80;;
52210;SDS011;38179;52.756;6.906;2023-07-29T13:52:43;21.38;;;19.58;;
52210;SDS011;38179;52.756;6.906;2023-07-29T13:55:09;20.50;;;18.88;;
52210;SDS011;38179;52.756;6.906;2023-07-29T13:57:36;20.42;;;18.88;;
52210;SDS011;38179;52.756;6.906;2023-07-29T14:00:04;20.70;;;19.05;;
52210;SDS011;38179;52.756;6.906;2023-07-29T14:02:32;20.42;;;19.02;;
52210;SDS011;38179;52.756;6.906;2023-07-29T14:04:58;20.45;;;18.85;;
52210;SDS011;38179;52.756;6.906;2023-07-29T14:07:24;19.92;;;18.52;;
52210;SDS011;38179;52.756;6.906;2023-07-29T14:09:50;19.80;;;18.40;;
52210;SDS011;38179;52.756;6.906;2023-07-29T14:12:15;20.17;;;18.52;;
52210;SDS011;38179;52.756;6.906;2023-07-29T14:14:42;20.13;;;18.73;;
52210;SDS011;38179;52.756;6.906;2023-07-29T14:17:08;19.98;;;18.35;;
52210;SDS011;38179;52.756;6.906;2023-07-29T14:19:37;19.95;;;18.35;;
52210;SDS011;38179;52.756;6.906;2023-07-29T14:22:03;19.23;;;17.88;;
52210;SDS011;38179;52.756;6.906;2023-07-29T14:24:29;19.35;;;17.98;;
52210;SDS011;38179;52.756;6.906;2023-07-29T14:26:56;19.45;;;18.05;;
52210;SDS011;38179;52.756;6.906;2023-07-29T14:29:22;19.60;;;18.20;;
52210;SDS011;38179;52.756;6.906;2023-07-29T14:31:48;19.85;;;18.33;;
52210;SDS011;38179;52.756;6.906;2023-07-29T14:34:14;19.55;;;18.13;;